La Crosse, VA

1:58 PM EST on March 03, 2015 (GMT -0500)
Mecklenburg-Brunswick Regional | Change Station
CLOSE
Current Station
Airport
Location: South Hill,
Elevation: 443 ft
Nearby Weather Stations

Elev 443 ft 36.69 °N, 78.05 °W | Updated 17 minutes ago

Overcast
Overcast
36 °F
Feels Like 36 °F
N
0
Wind Variable Wind from North

Today
High -- | Low -- °F
--% Chance of Precip.
Yesterday
High -- | Low -- °F
Precip. -- in
6:40 AM 6:08 PM
Waxing Gibbous, 97% visible
Pressure 30.34 in
Visibility 10.0 miles
Clouds Overcast 2700 ft
Dew Point 20 °F
Humidity 52%
Rainfall 0.00 in
Snow Depth Not available.
UV 2 out of 12
Pollen 5.60 out of 12
Air Quality Not available.
Flu Activity Not available.
METAR KAVC 031841Z AUTO 00000KT 10SM OVC027 02/M07 A3034 RMK AO2 T00231067

More Conditions Fewer Conditions

Pressure 30.34 in
Visibility 10.0 miles
Clouds Overcast 2700 ft
Dew Point 20 °F
Humidity 52%
Rainfall 0.00 in
Snow Depth Not available.
UV 2 out of 12
Pollen 5.60 out of 12
Air Quality Not available.
Flu Activity Not available.
METAR KAVC 031841Z AUTO 00000KT 10SM OVC027 02/M07 A3034 RMK AO2 T00231067

More Conditions Fewer Conditions

10-Day Weather Forecast

Almanac

Astronomy

Mar. 03, 2015 Rise Set
Actual Time
Civil Twilight
Nautical Twilight
Astronomical Twilight
Moon
Length of Visible Light
Length of Day
Tomorrow will be .
, % of the Moon is Illuminated

Today's Extremes

State Highs State Lows

Community

WunderPhotos

Upload Photos

1,802,198 photos uploaded!

WunderBlogs® & News

Nearby

Air Quality

  Air Quality AQ Index Pollutant
Not available.

Snow Depth

Station Depth Elevation

Earthquake Activity

City Distance Mag. Time & Date
Minimum magnitude displayed is 2.5.

Coastal Water Temperatures

Place Temperature

Nearby Weather Stations